Aérodrome :
LOGIN :

S'inscrire | Disclaimer

   EN    FR    IT 

 










Légende :    VFR   VFR Marginal   IFR   IFR Intensif   IFR Très Intensif
Visi : 
Plafond : 
>= 8 km
>= 3000ft
5 à 8 km
1000 à 3000 ft
1500m à 5 km
500 à 1000 ft
800 à 1500m
200 à 500 ft
< 800m
< 200 ft
Symboles :   Orages  Brouillard  Fortes neiges  Fortes précipitations  Vent > 20 kt
SIGMETs :   Divers  Orages  Givrage  Turbulence  Onde Orograph.  Cendres Volcan.







- Altitude de l'aérodrome : 755 ft
- Code IATA : DRS


EDDC - Dresden Klotzsche

DERNIER METAR :
  • 220020Z 19002KT CAVOK 12/07 Q1019

METARs EXPIRÉS :
  • 212350Z 00000KT CAVOK 12/07 Q1019
  • 212320Z 09001KT CAVOK 12/07 Q1019
  • 212250Z VRB01KT CAVOK 12/07 Q1019
  • 212220Z 03003KT CAVOK 14/07 Q1019
  • 212150Z 02003KT CAVOK 14/09 Q1019

TAF TAF EDDC
Valide du 22 à 00h jusqu'au 23 à 00h UTC


212300Z 2200/2224 16004KT CAVOK
BECMG 2210/2214 36005KT
BECMG 2214/2217 14005KT
Pas de NOTAMs connus pour ce terrain.



MET'MAP, la Météo Aéronautique d'un coup d'oeil ! - Copyright ORBIFLY Décembre 2007 - Disclaimer

ORBIFLY MET'MAP TEAM :

Programmation & Développement : Alexandra Zaïnal
Conception & Développement : Baudouin d'Aumeries
Co-Programmation & Développement : Marc-Olivier Méhu
Soutien technique & logistique : Manuel Goepfert

Contact : metmap@orbifly.com




SOURCES & CREDITS :

   NOAA